EKKA/KRP METAR and TAF weather

Enter ICAO airport designator
Station Type Date Time Source
EKKA METAR 2020/07/11 19:50 UTC NOAA

EKKA 111950Z AUTO 26009KT 9999 FEW022/// 12/08 Q1021


Station Type Date Time Source
EKKA Decoded METAR 2020/07/11 19:50 UTC NOAA

Karup, Denmark (EKKA) 56-18N 009-07E 53M
Jul 11, 2020 - 03:50 PM EDT / 2020.07.11 1950 UTC
Wind: from the W (260 degrees) at 10 MPH (9 KT):0
Visibility: greater than 7 mile(s):0
Sky conditions: mostly clear
Temperature: 53 F (12 C)
Dew Point: 46 F (8 C)
Relative Humidity: 76%
Pressure (altimeter): 30.15 in. Hg (1021 hPa)
ob: EKKA 111950Z AUTO 26009KT 9999 FEW022/// 12/08 Q1021
cycle: 20

Station Type Date Time Source
EKKA TAF 2020/07/11 18:30 UTC NOAA

TAF TAF EKKA 111710Z 1118/1218 27012KT 9999 SCT025
TEMPO 1203/1207 -SHRA SCT020TCU
TEMPO 1207/1216 29012G22KT

Example: see airport list